Monday, January 22, 2018, 9:08 AM EST
Back to Local

KBTV, Burlington International

Location: South Burlington, VT, United States Lat: 44.467
Local Time: 9:08 AM EST (14:08 GMT) Lon: -73.15
Time Zone: US/Eastern Elev: 334 ft

Show me the last for .
Show Decoded

2018-01-22 08:54 METAR KBTV 221354Z 33008KT 10SM BKN009 BKN040 OVC110 M06/M08 A3029 RMK AO2
                 SLP262 T10561083 =
2018-01-22 08:02 METAR KBTV 221302Z 32009KT 10SM SCT009 BKN039 OVC110 M06/M08 A3028 RMK AO2
                 T10561078 =
2018-01-22 07:54 METAR KBTV 221254Z 31008KT 10SM FEW039 OVC110 M05/M08 A3028 RMK AO2 SLP258
                 T10501078 =
2018-01-22 06:54 METAR KBTV 221154Z 34006KT 10SM FEW009 BKN044 OVC110 M05/M07 A3025 RMK AO2
                 SLP249 4/004 T10501072 11017 21050 51017 =
2018-01-22 06:52 METAR KBTV 221152Z 34007KT 10SM FEW009 BKN044 OVC110 M05/M07 A3025 RMK AO2 =
2018-01-22 05:54 METAR KBTV 221054Z 32011KT 10SM OVC045 M04/M07 A3023 RMK AO2 SLP242 T10441072 =
2018-01-22 04:54 METAR KBTV 220954Z 32005KT 10SM SCT043 OVC100 M04/M07 A3020 RMK AO2 SLP232
                 T10391067 =
2018-01-22 03:54 METAR KBTV 220854Z 32009KT 10SM FEW045 OVC110 M03/M07 A3022 RMK AO2 SLP236
                 T10331067 53013 =
2018-01-22 03:44 METAR KBTV 220844Z 32009KT 10SM SCT026 BKN045 OVC110 M03/M07 A3022 RMK AO2
                 T10331067 =
2018-01-22 03:14 METAR KBTV 220814Z 31007KT 10SM BKN026 OVC100 M03/M07 A3021 RMK AO2 T10331067 =
2018-01-22 02:54 METAR KBTV 220754Z 31005KT 10SM OVC100 M03/M06 A3020 RMK AO2 SLP231 T10281061 =
2018-01-22 01:54 METAR KBTV 220654Z 32007KT 10SM OVC100 M02/M06 A3019 RMK AO2 SLP226 T10221056 =
2018-01-22 00:54 METAR KBTV 220554Z 32005KT 10SM OVC100 M02/M05 A3018 RMK AO2 SLP223 T10171050
                 10011 21017 50002 =
2018-01-21 23:54 METAR KBTV 220454Z 32006KT 10SM FEW044 OVC100 M01/M04 A3018 RMK AO2 SLP225 LAST
                 T10111044 400501011 =
2018-01-21 22:54 METAR KBTV 220354Z 29003KT 10SM BKN044 OVC100 M01/M04 A3018 RMK AO2 SLP223
                 T10061044 =
2018-01-21 21:54 METAR KBTV 220254Z 32003KT 10SM FEW042 OVC100 M01/M04 A3017 RMK AO2 SLP221
                 T10061044 51006 =
2018-01-21 20:54 METAR KBTV 220154Z 31003KT 10SM BKN043 OVC100 M01/M04 A3017 RMK AO2 SLP219
                 T10061039 =
2018-01-21 19:54 METAR KBTV 220054Z 30003KT 10SM BKN046 OVC100 00/M04 A3016 RMK AO2 SLP219
                 T00001039 =
2018-01-21 18:54 METAR KBTV 212354Z 30004KT 10SM OVC100 01/M04 A3015 RMK AO2 SLP214 4/004
                 T00111039 10044 20011 51007 =
2018-01-21 17:54 METAR KBTV 212254Z 32004KT 10SM FEW050 OVC090 01/M04 A3015 RMK AO2 SLP212
                 T00111039 =
2018-01-21 16:54 METAR KBTV 212154Z 33007KT 10SM FEW050 OVC110 02/M03 A3014 RMK AO2 SLP210
                 T00171033 =
2018-01-21 15:54 METAR KBTV 212054Z 31004KT 10SM BKN047 BKN120 03/M03 A3013 RMK AO2 SLP207
                 T00281033 53007 =
2018-01-21 14:54 METAR KBTV 211954Z 00000KT 10SM BKN046 BKN150 04/M03 A3011 RMK AO2 SLP200
                 T00391028 =
2018-01-21 13:54 METAR KBTV 211854Z 33003KT 10SM FEW055 BKN130 BKN150 04/M03 A3010 RMK AO2 SLP196
                 T00391033 =
2018-01-21 12:54 METAR KBTV 211754Z 00000KT 10SM FEW055 BKN150 04/M03 A3011 RMK AO2 SLP198 4/004
                 T00441033 10044 20017 58008 =
2018-01-21 11:54 METAR KBTV 211654Z 00000KT 10SM FEW055 BKN150 04/M03 A3013 RMK AO2 SLP204
                 T00391033 =
2018-01-21 11:11 METAR KBTV 211611Z 00000KT 10SM SCT028 SCT032 OVC050 03/M03 A3014 RMK AO2
                 T00281033 =
2018-01-21 10:54 METAR KBTV 211554Z 00000KT 10SM BKN027 OVC032 03/M03 A3014 RMK AO2 SLP210
                 T00331033 =
2018-01-21 09:54 METAR KBTV 211454Z 03003KT 10SM BKN025 OVC055 03/M03 A3013 RMK AO2 SLP207
                 T00281033 53017 =
2018-01-21 09:25 METAR KBTV 211425Z 04003KT 10SM BKN026 OVC055 03/M03 A3013 RMK AO2 T00281033 =
2018-01-21 09:14 METAR KBTV 211414Z 00000KT 10SM SCT026 OVC055 02/M03 A3012 RMK AO2 T00221033 =

Support USWX by starting your Amazon purchase here.